Efogi Airport

EFG · Northern Province, Papua New Guinea

METAR history EFG · Efogi Airport

Below you see METARs of the last few days. Select a year to browse through older METARs, from the year 2007 onwards.

May 28, 2024

Time Code Weather Temp. Visibility Ceiling Wind METAR/SPECI
05:00
V
25 °C 10 km+ - 130° 130° 6 kt METAR AYPY 271900Z 13006KT 9999 SCT030 25/24 Q1009
05:00
V
25 °C 10 km+ - 130° 130° 6 kt METAR AYPY 271900Z 13006KT 9999 SCT030 25/24 Q1009=
04:00
V
26 °C 10 km+ - 130° 130° 5 kt METAR AYPY 271800Z 13005KT 9999 SCT030 26/24 Q1009=
03:00
V
26 °C 10 km+ 3,500 ft Var Var 3 kt METAR AYPY 271700Z VRB03KT 9999 BKN035 26/24 Q1009=
02:00
V
26 °C 10 km+ - 130° 130° 5 kt METAR AYPY 271600Z 13005KT 9999 FEW030 26/24 Q1009
01:00
V
26 °C 10 km+ - 130° 130° 5 kt METAR AYPY 271500Z 13005KT 9999 FEW030 26/24 Q1010=
00:00
V
26 °C 10 km+ - 120° 120° 8 kt METAR AYPY 271400Z 12008KT 9999 FEW030 26/23 Q1010=

May 27, 2024

Time Code Weather Temp. Visibility Ceiling Wind METAR/SPECI
23:00
V
27 °C 10 km+ - 120° 120° 10 kt METAR AYPY 271300Z 12010KT 9999 FEW030 27/24 Q1010=
22:00
V
27 °C 10 km+ - 150° 150° 10 - 15 kt METAR AYPY 271200Z 15010G15KT 9999 FEW030 27/24 Q1010=
21:00
V
27 °C 10 km+ - 130° 130° 12 kt METAR AYPY 271100Z 13012KT 9999 FEW050 27/24 Q1010
20:00
V
27 °C 10 km+ - 150° 150° 10 - 15 kt METAR AYPY 271000Z 15010G15KT 9999 FEW030 27/24 Q1009=
19:00
V
28 °C 10 km+ - 150° 150° 10 - 15 kt METAR AYPY 270900Z 15010G15KT 9999 SCT050 28/24 Q1009
18:00
V
29 °C 10 km+ - 150° 150° 10 kt METAR AYPY 270800Z 15010KT 9999 HZ SCT050 29/25 Q1008=
17:00
V
29 °C 10 km+ - 140° 140° 10 - 15 kt METAR AYPY 270700Z 14010G15KT 9999 FUHZ SCT050 29/25 Q1007=
16:00
V
31 °C 10 km+ - 140° 140° 10 - 15 kt METAR AYPY 270600Z 14010G15KT 9999 HZ SCT030 SCT050 31/25 Q1007=
15:00
V
31 °C 10 km+ - 140° 140° 10 - 20 kt METAR AYPY 270500Z 14010G20KT 9999 HZ SCT030 SCT050 31/25 Q1007
14:00
V
33 °C 10 km+ - 140° 140° 10 - 15 kt METAR AYPY 270400Z 14010G15KT 9999 HZ SCT030 SCT050 33/25 Q1008
12:00
V
33 °C 10 km+ - 130° 130° 10 kt METAR AYPY 270200Z 13010KT 9999 HZ SCT030 SCT050 33/24 Q1009=
11:00
V
32 °C 10 km+ - 150° 150° 10 kt METAR AYPY 270100Z 15010KT 9999 HZ FEW030 SCT050 32/24 Q1010=
10:00
V
31 °C 10 km+ - 150° 150° 10 kt METAR AYPY 270000Z 15010KT 9999 HZ FEW030 SCT050 31/25 Q1010=
09:00
V
29 °C 10 km+ - 130° 130° 8 kt METAR AYPY 262300Z 13008KT 9999 HZ FEW050 29/24 Q1010=
08:00
V
27 °C 10 km+ - 150° 150° 8 kt METAR AYPY 262200Z 15008KT 9999 HZ FEW020 SCT050 27/24 Q1010=
07:00
V
26 °C 10 km+ 8,000 ft 130° 130° 5 kt METAR AYPY 262100Z 13005KT 9999 HZ FEW020 BKN080 26/24 Q1010=
06:00
M
26 °C 10 km+ 1,500 ft 130° 130° 5 kt METAR AYPY 262000Z 13005KT 9999 BKN015 OVC020 26/24 Q1009
04:00
M
26 °C 10 km+ 2,000 ft 130° 130° 5 kt METAR AYPY 261800Z 13005KT 9999 BKN020 BKN050 26/24 Q1009=
02:00
M
26 °C 10 km+ 2,000 ft 160° 160° 10 kt METAR AYPY 261600Z 16010KT 9999 OVC020 26/24 Q1009
01:00
V
26 °C 10 km+ - Var Var 3 kt METAR AYPY 261500Z VRB03KT 9999 FEW020 SCT210 26/24 Q1009
00:00
V
27 °C 10 km+ - 140° 140° 10 kt METAR AYPY 261400Z 14010KT 9999 FEW020 SCT100 27/24 Q1009=

May 26, 2024

Time Code Weather Temp. Visibility Ceiling Wind METAR/SPECI
21:00
V
27 °C 10 km+ - 150° 150° 15 kt METAR AYPY 261100Z 15015KT 9999 FEW020 SCT040 27/25 Q1010=
20:00
V
27 °C 10 km+ 10,000 ft 150° 150° 15 kt METAR AYPY 261000Z 15015KT 9999 -SH SCT040 BKN100 27/25 Q1009=
19:00
V
28 °C 10 km+ - 150° 150° 15 kt METAR AYPY 260900Z 15015KT 9999 SCT040 SCT100 28/25 Q1009
18:00
V
28 °C 10 km+ - 150° 150° 15 kt METAR AYPY 260800Z 15015KT 9999 HZ SCT040 SCT100 28/25 Q1008=
17:00
V
29 °C 10 km+ - 160° 160° 15 kt METAR AYPY 260700Z 16015KT 9999 HZ SCT030 SCT050 29/25 Q1008=
16:00
V
29 °C 10 km+ - 150° 150° 10 kt METAR AYPY 260600Z 15010KT 9999 HZ FEW020 SCT040 29/25 Q1007=
15:00
V
31 °C 10 km+ - 150° 150° 20 kt METAR AYPY 260500Z 15020KT 9999 HZ FEW020 SCT040 31/25 Q1007=
13:00
V
31 °C 10 km+ - 140° 140° 10 kt METAR AYPY 260300Z 14010KT 9999 SCT025 SCT035 31/25 Q1008
12:00
V
31 °C 10 km+ - Var Var 4 kt METAR AYPY 260200Z VRB04KT 9999 SCT025 SCT035 31/25 Q1010=
11:00
V
30 °C 10 km+ - 150° 150° 6 kt METAR AYPY 260100Z 15006KT 9999 SCT025 SCT040 30/25 Q1010
10:00
V
30 °C 10 km+ - 150° 150° 8 kt METAR AYPY 260000Z 15008KT 9999 FEW025 SCT040 30/24 Q1011=
06:00
V
26 °C 10 km+ 5,000 ft 120° 120° 5 kt METAR AYPY 252000Z 12005KT 9999 BKN050 26/24 Q1009=
05:00
V
26 °C 10 km+ - Var Var 3 kt METAR AYPY 251900Z VRB03KT 9999 SCT050 26/23 Q1008
04:00
V
26 °C 10 km+ 5,000 ft 130° 130° 5 - 10 kt METAR AYPY 251800Z 13005G10KT 9999 BKN050 26/23 Q1008
03:00
V
26 °C 10 km+ 5,000 ft 140° 140° 5 - 10 kt METAR AYPY 251700Z 14005G10KT 9999 BKN050 26/24 Q1008
02:00
V
26 °C 10 km+ - 130° 130° 5 kt METAR AYPY 251600Z 13005KT 9999 SCT050 26/24 Q1008
00:00
V
27 °C 10 km+ - 130° 130° 5 kt METAR AYPY 251400Z 13005KT 9999 FEW040 SCT180 27/24 Q1010=

May 25, 2024

Time Code Weather Temp. Visibility Ceiling Wind METAR/SPECI
23:00
V
27 °C 10 km+ - 130° 130° 10 kt METAR AYPY 251300Z 13010KT 9999 FEW040 SCT100 27/24 Q1010=
22:00
V
27 °C 10 km+ - 130° 130° 10 kt METAR AYPY 251200Z 13010KT 9999 FEW030 SCT100 27/24 Q1010=
21:00
V
27 °C 10 km+ - 150° 150° 15 kt METAR AYPY 251100Z 15015KT 9999 FEW040 SCT080 27/24 Q1010
20:00
V
28 °C 10 km+ - 140° 140° 15 kt METAR AYPY 251000Z 14015KT 9999 SCT040 SCT080 28/25 Q1009=
19:00
V
28 °C 10 km+ 6,000 ft 140° 140° 15 kt METAR AYPY 250900Z 14015KT 9999 SCT040 BKN060 28/25 Q1008
18:00
V
29 °C 10 km+ - 150° 150° 15 - 20 kt METAR AYPY 250800Z 15015G20KT 9999 FUHZ FEW025 SCT040 29/25 Q1008
17:00
V
30 °C 10 km+ - 150° 150° 15 - 25 kt METAR AYPY 250700Z 15015G25KT 9999 FUHZ FEW025 SCT035 30/25 Q1007=
16:00
V
31 °C 10 km+ - 150° 150° 10 - 20 kt METAR AYPY 250600Z 15010G20KT 9999 FUHZ FEW025 SCT035 31/25 Q1007
Report a change